sensor_id;sensor_type;location;lat;lon;timestamp;P1;durP1;ratioP1;P2;durP2;ratioP2
2674;SDS011;1347;42.122;24.746;2023-04-25T00:02:03;5.10;;;4.27;;
2674;SDS011;1347;42.122;24.746;2023-04-25T00:04:30;4.00;;;3.60;;
2674;SDS011;1347;42.122;24.746;2023-04-25T00:06:59;4.40;;;4.00;;
2674;SDS011;1347;42.122;24.746;2023-04-25T00:09:27;4.07;;;3.63;;
2674;SDS011;1347;42.122;24.746;2023-04-25T00:11:54;4.17;;;3.70;;
2674;SDS011;1347;42.122;24.746;2023-04-25T00:14:21;12.93;;;4.37;;
2674;SDS011;1347;42.122;24.746;2023-04-25T00:16:48;5.47;;;4.93;;
2674;SDS011;1347;42.122;24.746;2023-04-25T00:19:16;5.87;;;5.27;;
2674;SDS011;1347;42.122;24.746;2023-04-25T00:21:43;7.03;;;6.03;;
2674;SDS011;1347;42.122;24.746;2023-04-25T00:24:12;6.30;;;5.70;;
2674;SDS011;1347;42.122;24.746;2023-04-25T00:26:39;6.70;;;5.50;;
2674;SDS011;1347;42.122;24.746;2023-04-25T00:29:06;5.40;;;4.73;;
2674;SDS011;1347;42.122;24.746;2023-04-25T00:31:33;5.53;;;5.03;;
2674;SDS011;1347;42.122;24.746;2023-04-25T00:34:00;6.73;;;5.00;;
2674;SDS011;1347;42.122;24.746;2023-04-25T00:36:27;5.07;;;4.63;;
2674;SDS011;1347;42.122;24.746;2023-04-25T00:38:55;4.73;;;4.30;;
2674;SDS011;1347;42.122;24.746;2023-04-25T00:41:23;5.37;;;4.67;;
2674;SDS011;1347;42.122;24.746;2023-04-25T00:43:51;4.83;;;4.33;;
2674;SDS011;1347;42.122;24.746;2023-04-25T00:46:20;6.20;;;5.60;;
2674;SDS011;1347;42.122;24.746;2023-04-25T00:48:46;5.37;;;4.87;;
2674;SDS011;1347;42.122;24.746;2023-04-25T00:51:14;6.20;;;5.17;;
2674;SDS011;1347;42.122;24.746;2023-04-25T00:53:45;6.50;;;5.83;;
2674;SDS011;1347;42.122;24.746;2023-04-25T00:56:13;6.30;;;5.70;;
2674;SDS011;1347;42.122;24.746;2023-04-25T00:58:41;6.50;;;5.90;;
2674;SDS011;1347;42.122;24.746;2023-04-25T01:01:08;5.93;;;5.33;;
2674;SDS011;1347;42.122;24.746;2023-04-25T01:03:37;6.10;;;5.50;;
2674;SDS011;1347;42.122;24.746;2023-04-25T01:06:06;5.47;;;4.90;;
2674;SDS011;1347;42.122;24.746;2023-04-25T01:08:35;9.10;;;5.63;;
2674;SDS011;1347;42.122;24.746;2023-04-25T01:11:03;7.30;;;6.43;;
2674;SDS011;1347;42.122;24.746;2023-04-25T01:13:30;8.17;;;5.47;;
2674;SDS011;1347;42.122;24.746;2023-04-25T01:15:59;7.10;;;6.50;;
2674;SDS011;1347;42.122;24.746;2023-04-25T01:18:26;7.00;;;6.40;;
2674;SDS011;1347;42.122;24.746;2023-04-25T01:20:54;7.00;;;6.30;;
2674;SDS011;1347;42.122;24.746;2023-04-25T01:23:23;9.10;;;7.13;;
2674;SDS011;1347;42.122;24.746;2023-04-25T01:25:50;10.20;;;9.20;;
2674;SDS011;1347;42.122;24.746;2023-04-25T01:28:17;8.43;;;7.53;;
2674;SDS011;1347;42.122;24.746;2023-04-25T01:30:44;8.93;;;8.03;;
2674;SDS011;1347;42.122;24.746;2023-04-25T01:33:12;7.90;;;6.93;;
2674;SDS011;1347;42.122;24.746;2023-04-25T01:35:40;8.43;;;7.63;;
2674;SDS011;1347;42.122;24.746;2023-04-25T01:38:07;6.80;;;6.10;;
2674;SDS011;1347;42.122;24.746;2023-04-25T01:40:36;6.10;;;5.60;;
2674;SDS011;1347;42.122;24.746;2023-04-25T01:43:06;10.10;;;7.33;;
2674;SDS011;1347;42.122;24.746;2023-04-25T01:45:36;9.80;;;7.83;;
2674;SDS011;1347;42.122;24.746;2023-04-25T01:48:05;11.20;;;8.73;;
2674;SDS011;1347;42.122;24.746;2023-04-25T01:50:32;9.27;;;8.37;;
2674;SDS011;1347;42.122;24.746;2023-04-25T01:52:59;9.30;;;8.33;;
2674;SDS011;1347;42.122;24.746;2023-04-25T01:55:26;9.63;;;8.63;;
2674;SDS011;1347;42.122;24.746;2023-04-25T01:57:55;10.53;;;9.20;;
2674;SDS011;1347;42.122;24.746;2023-04-25T02:00:22;9.93;;;9.07;;
2674;SDS011;1347;42.122;24.746;2023-04-25T02:02:49;9.57;;;8.67;;
2674;SDS011;1347;42.122;24.746;2023-04-25T02:05:18;9.97;;;8.93;;
2674;SDS011;1347;42.122;24.746;2023-04-25T02:07:46;11.77;;;10.60;;
2674;SDS011;1347;42.122;24.746;2023-04-25T02:10:13;10.33;;;8.77;;
2674;SDS011;1347;42.122;24.746;2023-04-25T02:12:40;9.80;;;8.90;;
2674;SDS011;1347;42.122;24.746;2023-04-25T02:15:09;10.67;;;9.57;;
2674;SDS011;1347;42.122;24.746;2023-04-25T02:17:36;10.83;;;9.83;;
2674;SDS011;1347;42.122;24.746;2023-04-25T02:20:04;10.50;;;9.40;;
2674;SDS011;1347;42.122;24.746;2023-04-25T02:22:32;11.20;;;10.10;;
2674;SDS011;1347;42.122;24.746;2023-04-25T02:25:00;11.40;;;10.20;;
2674;SDS011;1347;42.122;24.746;2023-04-25T02:27:27;11.20;;;9.50;;
2674;SDS011;1347;42.122;24.746;2023-04-25T02:29:54;10.30;;;8.80;;
2674;SDS011;1347;42.122;24.746;2023-04-25T02:32:22;11.20;;;8.70;;
2674;SDS011;1347;42.122;24.746;2023-04-25T02:34:49;10.93;;;9.87;;
2674;SDS011;1347;42.122;24.746;2023-04-25T02:37:16;10.50;;;9.50;;
2674;SDS011;1347;42.122;24.746;2023-04-25T02:39:43;11.87;;;10.67;;
2674;SDS011;1347;42.122;24.746;2023-04-25T02:42:10;10.90;;;9.80;;
2674;SDS011;1347;42.122;24.746;2023-04-25T02:44:37;11.83;;;10.40;;
2674;SDS011;1347;42.122;24.746;2023-04-25T02:47:04;10.50;;;8.87;;
2674;SDS011;1347;42.122;24.746;2023-04-25T02:49:32;11.37;;;10.17;;
2674;SDS011;1347;42.122;24.746;2023-04-25T02:51:59;11.10;;;9.90;;
2674;SDS011;1347;42.122;24.746;2023-04-25T02:54:26;12.40;;;10.40;;
2674;SDS011;1347;42.122;24.746;2023-04-25T02:56:52;11.83;;;10.80;;
2674;SDS011;1347;42.122;24.746;2023-04-25T02:59:19;10.83;;;9.80;;
2674;SDS011;1347;42.122;24.746;2023-04-25T03:01:46;13.03;;;10.43;;
2674;SDS011;1347;42.122;24.746;2023-04-25T03:04:13;11.20;;;10.00;;
2674;SDS011;1347;42.122;24.746;2023-04-25T03:06:41;12.57;;;11.20;;
2674;SDS011;1347;42.122;24.746;2023-04-25T03:09:08;13.40;;;11.80;;
2674;SDS011;1347;42.122;24.746;2023-04-25T03:11:36;13.30;;;12.00;;
2674;SDS011;1347;42.122;24.746;2023-04-25T03:14:03;14.10;;;12.60;;
2674;SDS011;1347;42.122;24.746;2023-04-25T03:16:30;13.60;;;12.20;;
2674;SDS011;1347;42.122;24.746;2023-04-25T03:18:57;15.07;;;12.17;;
2674;SDS011;1347;42.122;24.746;2023-04-25T03:21:24;13.83;;;12.40;;
2674;SDS011;1347;42.122;24.746;2023-04-25T03:23:52;14.40;;;12.90;;
2674;SDS011;1347;42.122;24.746;2023-04-25T03:26:20;12.43;;;11.13;;
2674;SDS011;1347;42.122;24.746;2023-04-25T03:28:47;12.63;;;11.33;;
2674;SDS011;1347;42.122;24.746;2023-04-25T03:31:13;11.13;;;10.00;;
2674;SDS011;1347;42.122;24.746;2023-04-25T03:33:40;10.17;;;9.17;;
2674;SDS011;1347;42.122;24.746;2023-04-25T03:36:07;12.53;;;9.80;;
2674;SDS011;1347;42.122;24.746;2023-04-25T03:38:35;11.33;;;9.80;;
2674;SDS011;1347;42.122;24.746;2023-04-25T03:41:03;12.17;;;10.97;;
2674;SDS011;1347;42.122;24.746;2023-04-25T03:43:30;11.90;;;10.80;;
2674;SDS011;1347;42.122;24.746;2023-04-25T03:45:57;12.83;;;11.63;;
2674;SDS011;1347;42.122;24.746;2023-04-25T03:48:24;10.83;;;9.77;;
2674;SDS011;1347;42.122;24.746;2023-04-25T03:50:52;11.93;;;10.73;;
2674;SDS011;1347;42.122;24.746;2023-04-25T03:53:19;11.57;;;10.37;;
2674;SDS011;1347;42.122;24.746;2023-04-25T03:55:46;11.70;;;10.60;;
2674;SDS011;1347;42.122;24.746;2023-04-25T03:58:14;14.93;;;11.70;;
2674;SDS011;1347;42.122;24.746;2023-04-25T04:00:41;13.50;;;12.10;;
2674;SDS011;1347;42.122;24.746;2023-04-25T04:03:08;12.73;;;11.33;;
2674;SDS011;1347;42.122;24.746;2023-04-25T04:05:36;12.33;;;10.47;;
2674;SDS011;1347;42.122;24.746;2023-04-25T04:08:05;11.80;;;10.63;;
2674;SDS011;1347;42.122;24.746;2023-04-25T04:10:32;13.60;;;11.57;;
2674;SDS011;1347;42.122;24.746;2023-04-25T04:12:59;15.17;;;13.63;;
2674;SDS011;1347;42.122;24.746;2023-04-25T04:15:29;13.83;;;12.27;;
2674;SDS011;1347;42.122;24.746;2023-04-25T04:17:58;14.47;;;12.00;;
2674;SDS011;1347;42.122;24.746;2023-04-25T04:20:28;14.63;;;13.07;;
2674;SDS011;1347;42.122;24.746;2023-04-25T04:22:55;16.77;;;14.97;;
2674;SDS011;1347;42.122;24.746;2023-04-25T04:25:22;16.00;;;14.30;;
2674;SDS011;1347;42.122;24.746;2023-04-25T04:27:50;15.20;;;13.60;;
2674;SDS011;1347;42.122;24.746;2023-04-25T04:30:19;16.63;;;14.43;;
2674;SDS011;1347;42.122;24.746;2023-04-25T04:32:50;15.90;;;14.30;;
2674;SDS011;1347;42.122;24.746;2023-04-25T04:35:17;16.87;;;15.27;;
2674;SDS011;1347;42.122;24.746;2023-04-25T04:37:44;16.30;;;14.07;;
2674;SDS011;1347;42.122;24.746;2023-04-25T04:40:11;17.33;;;14.90;;
2674;SDS011;1347;42.122;24.746;2023-04-25T04:42:40;20.13;;;14.87;;
2674;SDS011;1347;42.122;24.746;2023-04-25T04:45:08;16.77;;;15.10;;
2674;SDS011;1347;42.122;24.746;2023-04-25T04:47:36;18.17;;;16.27;;
2674;SDS011;1347;42.122;24.746;2023-04-25T04:50:06;15.33;;;13.83;;
2674;SDS011;1347;42.122;24.746;2023-04-25T04:52:34;15.50;;;13.90;;
2674;SDS011;1347;42.122;24.746;2023-04-25T04:55:01;16.23;;;14.63;;
2674;SDS011;1347;42.122;24.746;2023-04-25T04:57:28;19.30;;;15.40;;
2674;SDS011;1347;42.122;24.746;2023-04-25T04:59:56;17.27;;;15.47;;
2674;SDS011;1347;42.122;24.746;2023-04-25T05:02:23;16.63;;;15.03;;
2674;SDS011;1347;42.122;24.746;2023-04-25T05:04:49;17.10;;;15.47;;
2674;SDS011;1347;42.122;24.746;2023-04-25T05:07:18;18.87;;;16.80;;
2674;SDS011;1347;42.122;24.746;2023-04-25T05:09:45;20.40;;;18.23;;
2674;SDS011;1347;42.122;24.746;2023-04-25T05:12:12;17.93;;;16.10;;
2674;SDS011;1347;42.122;24.746;2023-04-25T05:14:39;19.40;;;16.10;;
2674;SDS011;1347;42.122;24.746;2023-04-25T05:17:05;16.90;;;15.20;;
2674;SDS011;1347;42.122;24.746;2023-04-25T05:19:33;18.93;;;17.00;;
2674;SDS011;1347;42.122;24.746;2023-04-25T05:22:00;20.23;;;17.70;;
2674;SDS011;1347;42.122;24.746;2023-04-25T05:24:29;19.13;;;17.23;;
2674;SDS011;1347;42.122;24.746;2023-04-25T05:26:56;20.73;;;16.87;;
2674;SDS011;1347;42.122;24.746;2023-04-25T05:29:23;21.00;;;16.90;;
2674;SDS011;1347;42.122;24.746;2023-04-25T05:31:50;19.57;;;16.87;;
2674;SDS011;1347;42.122;24.746;2023-04-25T05:34:18;18.70;;;16.80;;
2674;SDS011;1347;42.122;24.746;2023-04-25T05:36:45;17.93;;;15.73;;
2674;SDS011;1347;42.122;24.746;2023-04-25T05:39:13;16.10;;;14.23;;
2674;SDS011;1347;42.122;24.746;2023-04-25T05:41:42;17.93;;;16.13;;
2674;SDS011;1347;42.122;24.746;2023-04-25T05:44:08;15.40;;;13.80;;
2674;SDS011;1347;42.122;24.746;2023-04-25T05:46:35;16.60;;;14.57;;
2674;SDS011;1347;42.122;24.746;2023-04-25T05:49:02;16.63;;;14.30;;
2674;SDS011;1347;42.122;24.746;2023-04-25T05:51:29;15.57;;;14.00;;
2674;SDS011;1347;42.122;24.746;2023-04-25T05:53:56;18.37;;;16.00;;
2674;SDS011;1347;42.122;24.746;2023-04-25T05:56:23;18.93;;;14.20;;
2674;SDS011;1347;42.122;24.746;2023-04-25T05:58:52;15.67;;;14.27;;
2674;SDS011;1347;42.122;24.746;2023-04-25T06:01:19;16.03;;;14.23;;
2674;SDS011;1347;42.122;24.746;2023-04-25T06:03:46;13.83;;;12.53;;
2674;SDS011;1347;42.122;24.746;2023-04-25T06:06:12;14.27;;;12.80;;
2674;SDS011;1347;42.122;24.746;2023-04-25T06:08:39;14.13;;;11.90;;
2674;SDS011;1347;42.122;24.746;2023-04-25T06:11:06;10.40;;;9.43;;
2674;SDS011;1347;42.122;24.746;2023-04-25T06:13:33;9.20;;;8.40;;
2674;SDS011;1347;42.122;24.746;2023-04-25T06:16:01;10.63;;;8.20;;
2674;SDS011;1347;42.122;24.746;2023-04-25T06:18:28;9.20;;;7.23;;
2674;SDS011;1347;42.122;24.746;2023-04-25T06:20:55;9.50;;;8.10;;
2674;SDS011;1347;42.122;24.746;2023-04-25T06:23:22;8.47;;;7.13;;
2674;SDS011;1347;42.122;24.746;2023-04-25T06:25:49;7.30;;;6.70;;
2674;SDS011;1347;42.122;24.746;2023-04-25T06:28:16;8.30;;;7.50;;
2674;SDS011;1347;42.122;24.746;2023-04-25T06:30:43;8.57;;;7.77;;
2674;SDS011;1347;42.122;24.746;2023-04-25T06:33:11;8.20;;;7.13;;
2674;SDS011;1347;42.122;24.746;2023-04-25T06:35:38;7.77;;;6.80;;
2674;SDS011;1347;42.122;24.746;2023-04-25T06:38:05;8.40;;;7.60;;
2674;SDS011;1347;42.122;24.746;2023-04-25T06:40:32;7.90;;;7.10;;
2674;SDS011;1347;42.122;24.746;2023-04-25T06:42:59;8.43;;;7.63;;
2674;SDS011;1347;42.122;24.746;2023-04-25T06:45:25;8.70;;;7.90;;
2674;SDS011;1347;42.122;24.746;2023-04-25T06:47:52;8.80;;;7.37;;
2674;SDS011;1347;42.122;24.746;2023-04-25T06:50:21;11.03;;;9.07;;
2674;SDS011;1347;42.122;24.746;2023-04-25T06:52:47;15.50;;;11.10;;
2674;SDS011;1347;42.122;24.746;2023-04-25T06:55:14;15.60;;;10.60;;
2674;SDS011;1347;42.122;24.746;2023-04-25T06:57:41;10.90;;;9.67;;
2674;SDS011;1347;42.122;24.746;2023-04-25T07:00:08;10.93;;;8.67;;
2674;SDS011;1347;42.122;24.746;2023-04-25T07:02:36;9.37;;;8.30;;
2674;SDS011;1347;42.122;24.746;2023-04-25T07:05:03;10.03;;;8.93;;
2674;SDS011;1347;42.122;24.746;2023-04-25T07:07:32;9.57;;;8.53;;
2674;SDS011;1347;42.122;24.746;2023-04-25T07:09:59;9.50;;;7.57;;
2674;SDS011;1347;42.122;24.746;2023-04-25T07:12:25;8.37;;;7.57;;
2674;SDS011;1347;42.122;24.746;2023-04-25T07:14:52;10.30;;;8.40;;
2674;SDS011;1347;42.122;24.746;2023-04-25T07:17:20;10.13;;;8.13;;
2674;SDS011;1347;42.122;24.746;2023-04-25T07:19:46;7.80;;;7.17;;
2674;SDS011;1347;42.122;24.746;2023-04-25T07:22:13;7.90;;;7.20;;
2674;SDS011;1347;42.122;24.746;2023-04-25T07:24:41;12.50;;;7.70;;
2674;SDS011;1347;42.122;24.746;2023-04-25T07:27:12;9.00;;;7.90;;
2674;SDS011;1347;42.122;24.746;2023-04-25T07:29:39;10.97;;;9.30;;
2674;SDS011;1347;42.122;24.746;2023-04-25T07:32:07;10.70;;;9.60;;
2674;SDS011;1347;42.122;24.746;2023-04-25T07:34:35;11.47;;;8.63;;
2674;SDS011;1347;42.122;24.746;2023-04-25T07:37:03;15.83;;;10.37;;
2674;SDS011;1347;42.122;24.746;2023-04-25T07:39:30;13.57;;;12.07;;
2674;SDS011;1347;42.122;24.746;2023-04-25T07:41:59;15.17;;;12.83;;
2674;SDS011;1347;42.122;24.746;2023-04-25T07:44:27;13.20;;;11.20;;
2674;SDS011;1347;42.122;24.746;2023-04-25T07:46:55;11.50;;;10.30;;
2674;SDS011;1347;42.122;24.746;2023-04-25T07:49:22;11.20;;;10.20;;
2674;SDS011;1347;42.122;24.746;2023-04-25T07:51:49;11.70;;;9.40;;
2674;SDS011;1347;42.122;24.746;2023-04-25T07:54:16;7.40;;;6.70;;
2674;SDS011;1347;42.122;24.746;2023-04-25T07:56:43;7.40;;;6.70;;
2674;SDS011;1347;42.122;24.746;2023-04-25T07:59:12;8.47;;;7.77;;
2674;SDS011;1347;42.122;24.746;2023-04-25T08:01:39;11.07;;;7.97;;
2674;SDS011;1347;42.122;24.746;2023-04-25T08:04:05;8.50;;;7.80;;
2674;SDS011;1347;42.122;24.746;2023-04-25T08:06:32;9.17;;;8.27;;
2674;SDS011;1347;42.122;24.746;2023-04-25T08:09:00;11.97;;;11.07;;
2674;SDS011;1347;42.122;24.746;2023-04-25T08:11:27;10.53;;;8.23;;
2674;SDS011;1347;42.122;24.746;2023-04-25T08:13:53;12.30;;;8.20;;
2674;SDS011;1347;42.122;24.746;2023-04-25T08:16:22;10.03;;;8.70;;
2674;SDS011;1347;42.122;24.746;2023-04-25T08:18:49;12.23;;;9.50;;
2674;SDS011;1347;42.122;24.746;2023-04-25T08:21:17;10.13;;;9.13;;
2674;SDS011;1347;42.122;24.746;2023-04-25T08:23:43;9.20;;;8.30;;
2674;SDS011;1347;42.122;24.746;2023-04-25T08:26:10;11.50;;;10.40;;
2674;SDS011;1347;42.122;24.746;2023-04-25T08:28:37;11.87;;;10.77;;
2674;SDS011;1347;42.122;24.746;2023-04-25T08:31:04;8.60;;;8.00;;
2674;SDS011;1347;42.122;24.746;2023-04-25T08:33:33;8.17;;;7.50;;
2674;SDS011;1347;42.122;24.746;2023-04-25T08:36:00;9.33;;;7.90;;
2674;SDS011;1347;42.122;24.746;2023-04-25T08:38:27;5.63;;;4.50;;
2674;SDS011;1347;42.122;24.746;2023-04-25T08:40:56;6.50;;;5.27;;
2674;SDS011;1347;42.122;24.746;2023-04-25T08:43:26;7.30;;;5.10;;
2674;SDS011;1347;42.122;24.746;2023-04-25T08:45:56;6.47;;;4.67;;
2674;SDS011;1347;42.122;24.746;2023-04-25T08:48:26;5.23;;;4.73;;
2674;SDS011;1347;42.122;24.746;2023-04-25T08:50:56;4.60;;;4.20;;
2674;SDS011;1347;42.122;24.746;2023-04-25T08:53:25;5.43;;;4.93;;
2674;SDS011;1347;42.122;24.746;2023-04-25T08:55:53;7.50;;;5.30;;
2674;SDS011;1347;42.122;24.746;2023-04-25T08:58:21;5.17;;;4.23;;
2674;SDS011;1347;42.122;24.746;2023-04-25T09:00:49;6.90;;;4.37;;
2674;SDS011;1347;42.122;24.746;2023-04-25T09:03:16;4.63;;;4.23;;
2674;SDS011;1347;42.122;24.746;2023-04-25T09:05:43;4.83;;;3.80;;
2674;SDS011;1347;42.122;24.746;2023-04-25T09:08:12;8.83;;;4.00;;
2674;SDS011;1347;42.122;24.746;2023-04-25T09:10:39;3.83;;;3.53;;
2674;SDS011;1347;42.122;24.746;2023-04-25T09:13:07;4.80;;;4.40;;
2674;SDS011;1347;42.122;24.746;2023-04-25T09:15:46;5.00;;;4.37;;
2674;SDS011;1347;42.122;24.746;2023-04-25T09:18:21;4.53;;;4.13;;
2674;SDS011;1347;42.122;24.746;2023-04-25T09:20:50;5.67;;;4.60;;
2674;SDS011;1347;42.122;24.746;2023-04-25T09:23:19;5.13;;;4.73;;
2674;SDS011;1347;42.122;24.746;2023-04-25T09:25:47;4.93;;;3.90;;
2674;SDS011;1347;42.122;24.746;2023-04-25T09:28:15;6.53;;;4.50;;
2674;SDS011;1347;42.122;24.746;2023-04-25T09:30:42;4.40;;;3.93;;
2674;SDS011;1347;42.122;24.746;2023-04-25T09:33:12;4.87;;;4.47;;
2674;SDS011;1347;42.122;24.746;2023-04-25T09:35:39;5.30;;;4.67;;
2674;SDS011;1347;42.122;24.746;2023-04-25T09:38:08;4.33;;;3.87;;
2674;SDS011;1347;42.122;24.746;2023-04-25T09:40:40;4.63;;;4.33;;
2674;SDS011;1347;42.122;24.746;2023-04-25T09:43:12;5.00;;;4.00;;
2674;SDS011;1347;42.122;24.746;2023-04-25T09:45:45;5.73;;;4.70;;
2674;SDS011;1347;42.122;24.746;2023-04-25T09:48:16;5.60;;;5.20;;
2674;SDS011;1347;42.122;24.746;2023-04-25T09:50:45;5.30;;;4.67;;
2674;SDS011;1347;42.122;24.746;2023-04-25T09:53:12;6.03;;;4.97;;
2674;SDS011;1347;42.122;24.746;2023-04-25T09:55:38;4.90;;;4.53;;
2674;SDS011;1347;42.122;24.746;2023-04-25T09:58:08;6.50;;;5.40;;
2674;SDS011;1347;42.122;24.746;2023-04-25T10:00:37;5.47;;;5.07;;
2674;SDS011;1347;42.122;24.746;2023-04-25T10:03:06;5.07;;;4.73;;
2674;SDS011;1347;42.122;24.746;2023-04-25T10:05:33;5.23;;;4.73;;
2674;SDS011;1347;42.122;24.746;2023-04-25T10:08:02;15.60;;;14.50;;
2674;SDS011;1347;42.122;24.746;2023-04-25T10:10:30;4.53;;;4.13;;
2674;SDS011;1347;42.122;24.746;2023-04-25T10:13:03;4.43;;;4.03;;
2674;SDS011;1347;42.122;24.746;2023-04-25T10:15:32;4.13;;;3.90;;
2674;SDS011;1347;42.122;24.746;2023-04-25T10:18:01;4.43;;;4.10;;
2674;SDS011;1347;42.122;24.746;2023-04-25T10:20:29;3.93;;;3.63;;
2674;SDS011;1347;42.122;24.746;2023-04-25T10:22:57;4.07;;;3.33;;
2674;SDS011;1347;42.122;24.746;2023-04-25T10:25:29;3.27;;;3.07;;
2674;SDS011;1347;42.122;24.746;2023-04-25T10:27:57;3.97;;;3.57;;
2674;SDS011;1347;42.122;24.746;2023-04-25T10:30:27;4.03;;;3.73;;
2674;SDS011;1347;42.122;24.746;2023-04-25T10:32:54;4.30;;;3.80;;
2674;SDS011;1347;42.122;24.746;2023-04-25T10:35:24;4.20;;;3.90;;
2674;SDS011;1347;42.122;24.746;2023-04-25T10:38:03;4.20;;;3.90;;
2674;SDS011;1347;42.122;24.746;2023-04-25T10:40:31;3.70;;;3.40;;
2674;SDS011;1347;42.122;24.746;2023-04-25T10:46:16;3.60;;;3.40;;
2674;SDS011;1347;42.122;24.746;2023-04-25T10:48:47;3.60;;;3.30;;
2674;SDS011;1347;42.122;24.746;2023-04-25T10:51:19;5.27;;;4.87;;
2674;SDS011;1347;42.122;24.746;2023-04-25T10:53:56;3.50;;;3.20;;
2674;SDS011;1347;42.122;24.746;2023-04-25T10:56:25;4.27;;;3.77;;
2674;SDS011;1347;42.122;24.746;2023-04-25T10:59:02;3.43;;;3.13;;
2674;SDS011;1347;42.122;24.746;2023-04-25T11:01:36;3.50;;;3.30;;
2674;SDS011;1347;42.122;24.746;2023-04-25T11:04:05;3.60;;;3.30;;
2674;SDS011;1347;42.122;24.746;2023-04-25T11:09:23;5.20;;;3.90;;
2674;SDS011;1347;42.122;24.746;2023-04-25T11:11:53;3.77;;;3.40;;
2674;SDS011;1347;42.122;24.746;2023-04-25T11:14:20;4.33;;;3.30;;
2674;SDS011;1347;42.122;24.746;2023-04-25T11:16:49;4.30;;;3.90;;
2674;SDS011;1347;42.122;24.746;2023-04-25T11:19:19;4.63;;;3.80;;
2674;SDS011;1347;42.122;24.746;2023-04-25T11:21:46;4.13;;;3.83;;
2674;SDS011;1347;42.122;24.746;2023-04-25T11:24:13;3.80;;;3.60;;
2674;SDS011;1347;42.122;24.746;2023-04-25T11:26:41;4.00;;;3.70;;
2674;SDS011;1347;42.122;24.746;2023-04-25T11:29:08;5.30;;;4.10;;
2674;SDS011;1347;42.122;24.746;2023-04-25T11:31:35;6.87;;;4.10;;
2674;SDS011;1347;42.122;24.746;2023-04-25T11:34:03;5.53;;;4.90;;
2674;SDS011;1347;42.122;24.746;2023-04-25T11:36:30;5.93;;;5.43;;
2674;SDS011;1347;42.122;24.746;2023-04-25T11:38:57;5.20;;;4.70;;
2674;SDS011;1347;42.122;24.746;2023-04-25T11:41:25;8.77;;;5.07;;
2674;SDS011;1347;42.122;24.746;2023-04-25T11:43:52;5.20;;;4.40;;
2674;SDS011;1347;42.122;24.746;2023-04-25T11:46:19;6.03;;;4.70;;
2674;SDS011;1347;42.122;24.746;2023-04-25T11:48:46;4.73;;;4.33;;
2674;SDS011;1347;42.122;24.746;2023-04-25T11:51:16;5.20;;;4.70;;
2674;SDS011;1347;42.122;24.746;2023-04-25T11:53:44;7.87;;;5.03;;
2674;SDS011;1347;42.122;24.746;2023-04-25T11:56:11;5.93;;;5.30;;
2674;SDS011;1347;42.122;24.746;2023-04-25T11:58:54;5.23;;;4.67;;
2674;SDS011;1347;42.122;24.746;2023-04-25T12:01:25;9.23;;;4.93;;
2674;SDS011;1347;42.122;24.746;2023-04-25T12:03:53;6.67;;;4.40;;
2674;SDS011;1347;42.122;24.746;2023-04-25T12:06:23;5.17;;;4.63;;
2674;SDS011;1347;42.122;24.746;2023-04-25T12:08:59;5.93;;;4.73;;
2674;SDS011;1347;42.122;24.746;2023-04-25T12:11:28;5.30;;;4.70;;
2674;SDS011;1347;42.122;24.746;2023-04-25T12:14:01;4.83;;;4.53;;
2674;SDS011;1347;42.122;24.746;2023-04-25T12:16:28;6.33;;;4.77;;
2674;SDS011;1347;42.122;24.746;2023-04-25T12:18:55;8.80;;;4.70;;
2674;SDS011;1347;42.122;24.746;2023-04-25T12:21:29;4.47;;;4.07;;
2674;SDS011;1347;42.122;24.746;2023-04-25T12:24:08;6.40;;;4.53;;
2674;SDS011;1347;42.122;24.746;2023-04-25T12:26:45;8.13;;;4.87;;
2674;SDS011;1347;42.122;24.746;2023-04-25T12:29:15;7.13;;;4.90;;
2674;SDS011;1347;42.122;24.746;2023-04-25T12:31:43;5.73;;;4.80;;
2674;SDS011;1347;42.122;24.746;2023-04-25T12:34:14;6.43;;;5.50;;
2674;SDS011;1347;42.122;24.746;2023-04-25T12:36:45;8.17;;;5.33;;
2674;SDS011;1347;42.122;24.746;2023-04-25T12:39:16;5.60;;;4.03;;
2674;SDS011;1347;42.122;24.746;2023-04-25T12:41:44;6.37;;;4.60;;
2674;SDS011;1347;42.122;24.746;2023-04-25T12:44:11;6.83;;;4.70;;
2674;SDS011;1347;42.122;24.746;2023-04-25T12:46:39;4.17;;;3.87;;
2674;SDS011;1347;42.122;24.746;2023-04-25T12:49:07;5.30;;;4.80;;
2674;SDS011;1347;42.122;24.746;2023-04-25T12:51:34;5.00;;;4.40;;
2674;SDS011;1347;42.122;24.746;2023-04-25T12:54:03;4.57;;;4.20;;
2674;SDS011;1347;42.122;24.746;2023-04-25T12:56:32;4.13;;;3.83;;
2674;SDS011;1347;42.122;24.746;2023-04-25T12:58:59;8.70;;;4.80;;
2674;SDS011;1347;42.122;24.746;2023-04-25T13:01:26;5.73;;;4.00;;
2674;SDS011;1347;42.122;24.746;2023-04-25T13:03:53;6.07;;;4.60;;
2674;SDS011;1347;42.122;24.746;2023-04-25T13:06:20;6.27;;;4.97;;
2674;SDS011;1347;42.122;24.746;2023-04-25T13:08:47;4.83;;;4.33;;
2674;SDS011;1347;42.122;24.746;2023-04-25T13:11:15;5.60;;;5.10;;
2674;SDS011;1347;42.122;24.746;2023-04-25T13:13:42;4.87;;;4.47;;
2674;SDS011;1347;42.122;24.746;2023-04-25T13:16:10;7.77;;;4.40;;
2674;SDS011;1347;42.122;24.746;2023-04-25T13:18:39;5.17;;;4.77;;
2674;SDS011;1347;42.122;24.746;2023-04-25T13:21:06;4.30;;;3.90;;
2674;SDS011;1347;42.122;24.746;2023-04-25T13:23:33;3.13;;;2.80;;
2674;SDS011;1347;42.122;24.746;2023-04-25T13:26:00;3.10;;;2.90;;
2674;SDS011;1347;42.122;24.746;2023-04-25T13:28:28;3.80;;;3.50;;
2674;SDS011;1347;42.122;24.746;2023-04-25T13:30:55;3.80;;;3.50;;
2674;SDS011;1347;42.122;24.746;2023-04-25T13:33:23;3.67;;;3.10;;
2674;SDS011;1347;42.122;24.746;2023-04-25T13:35:50;3.97;;;3.10;;
2674;SDS011;1347;42.122;24.746;2023-04-25T13:38:21;2.63;;;2.20;;
2674;SDS011;1347;42.122;24.746;2023-04-25T13:40:48;6.17;;;2.80;;
2674;SDS011;1347;42.122;24.746;2023-04-25T13:43:17;5.77;;;2.80;;
2674;SDS011;1347;42.122;24.746;2023-04-25T13:45:46;4.20;;;2.93;;
2674;SDS011;1347;42.122;24.746;2023-04-25T13:48:13;2.90;;;2.00;;
2674;SDS011;1347;42.122;24.746;2023-04-25T13:50:40;4.27;;;2.70;;
2674;SDS011;1347;42.122;24.746;2023-04-25T13:53:07;2.67;;;2.47;;
2674;SDS011;1347;42.122;24.746;2023-04-25T13:55:34;2.53;;;2.33;;
2674;SDS011;1347;42.122;24.746;2023-04-25T13:58:01;5.40;;;2.50;;
2674;SDS011;1347;42.122;24.746;2023-04-25T14:00:32;4.53;;;2.67;;
2674;SDS011;1347;42.122;24.746;2023-04-25T14:03:02;5.60;;;2.40;;
2674;SDS011;1347;42.122;24.746;2023-04-25T14:05:32;7.30;;;2.60;;
2674;SDS011;1347;42.122;24.746;2023-04-25T14:08:03;5.40;;;2.80;;
2674;SDS011;1347;42.122;24.746;2023-04-25T14:10:30;5.23;;;2.60;;
2674;SDS011;1347;42.122;24.746;2023-04-25T14:12:57;4.43;;;2.90;;
2674;SDS011;1347;42.122;24.746;2023-04-25T14:15:25;2.90;;;2.70;;
2674;SDS011;1347;42.122;24.746;2023-04-25T14:17:52;3.10;;;2.80;;
2674;SDS011;1347;42.122;24.746;2023-04-25T14:20:20;3.27;;;2.97;;
2674;SDS011;1347;42.122;24.746;2023-04-25T14:22:49;2.53;;;2.33;;
2674;SDS011;1347;42.122;24.746;2023-04-25T14:25:17;4.13;;;2.73;;
2674;SDS011;1347;42.122;24.746;2023-04-25T14:27:44;2.30;;;2.10;;
2674;SDS011;1347;42.122;24.746;2023-04-25T14:30:14;3.70;;;2.37;;
2674;SDS011;1347;42.122;24.746;2023-04-25T14:32:42;2.80;;;2.60;;
2674;SDS011;1347;42.122;24.746;2023-04-25T14:35:09;3.10;;;2.27;;
2674;SDS011;1347;42.122;24.746;2023-04-25T14:37:37;2.50;;;2.30;;
2674;SDS011;1347;42.122;24.746;2023-04-25T14:40:05;2.73;;;2.53;;
2674;SDS011;1347;42.122;24.746;2023-04-25T14:42:33;3.23;;;2.90;;
2674;SDS011;1347;42.122;24.746;2023-04-25T14:45:01;5.40;;;2.63;;
2674;SDS011;1347;42.122;24.746;2023-04-25T14:47:28;2.50;;;2.30;;
2674;SDS011;1347;42.122;24.746;2023-04-25T14:49:56;6.47;;;3.30;;
2674;SDS011;1347;42.122;24.746;2023-04-25T14:52:22;3.00;;;2.70;;
2674;SDS011;1347;42.122;24.746;2023-04-25T14:54:52;3.57;;;2.73;;
2674;SDS011;1347;42.122;24.746;2023-04-25T14:57:19;4.70;;;3.20;;
2674;SDS011;1347;42.122;24.746;2023-04-25T14:59:45;2.50;;;2.30;;
2674;SDS011;1347;42.122;24.746;2023-04-25T15:02:12;3.43;;;3.10;;
2674;SDS011;1347;42.122;24.746;2023-04-25T15:04:39;5.50;;;3.50;;